sensor_id;sensor_type;location;lat;lon;timestamp;P1;durP1;ratioP1;P2;durP2;ratioP2
71665;SDS011;59503;53.486;10.196;2023-06-14T00:00:37;7.47;;;1.98;;
71665;SDS011;59503;53.486;10.196;2023-06-14T00:03:06;3.90;;;1.75;;
71665;SDS011;59503;53.486;10.196;2023-06-14T00:05:35;4.33;;;1.87;;
71665;SDS011;59503;53.486;10.196;2023-06-14T00:08:07;6.47;;;2.20;;
71665;SDS011;59503;53.486;10.196;2023-06-14T00:10:34;4.22;;;2.20;;
71665;SDS011;59503;53.486;10.196;2023-06-14T00:13:01;7.10;;;1.83;;
71665;SDS011;59503;53.486;10.196;2023-06-14T00:15:27;2.95;;;1.85;;
71665;SDS011;59503;53.486;10.196;2023-06-14T00:17:53;4.13;;;2.07;;
71665;SDS011;59503;53.486;10.196;2023-06-14T00:20:20;4.40;;;2.00;;
71665;SDS011;59503;53.486;10.196;2023-06-14T00:22:46;5.90;;;2.00;;
71665;SDS011;59503;53.486;10.196;2023-06-14T00:25:11;5.80;;;1.80;;
71665;SDS011;59503;53.486;10.196;2023-06-14T00:27:36;5.77;;;2.03;;
71665;SDS011;59503;53.486;10.196;2023-06-14T00:30:02;5.20;;;1.67;;
71665;SDS011;59503;53.486;10.196;2023-06-14T00:32:27;3.20;;;1.97;;
71665;SDS011;59503;53.486;10.196;2023-06-14T00:34:53;5.37;;;2.20;;
71665;SDS011;59503;53.486;10.196;2023-06-14T00:37:18;5.72;;;2.10;;
71665;SDS011;59503;53.486;10.196;2023-06-14T00:39:44;4.47;;;2.17;;
71665;SDS011;59503;53.486;10.196;2023-06-14T00:42:09;5.87;;;2.27;;
71665;SDS011;59503;53.486;10.196;2023-06-14T00:44:35;3.63;;;1.83;;
71665;SDS011;59503;53.486;10.196;2023-06-14T00:47:00;3.50;;;2.10;;
71665;SDS011;59503;53.486;10.196;2023-06-14T00:49:27;4.03;;;2.20;;
71665;SDS011;59503;53.486;10.196;2023-06-14T00:51:54;4.05;;;2.30;;
71665;SDS011;59503;53.486;10.196;2023-06-14T00:54:20;5.63;;;1.90;;
71665;SDS011;59503;53.486;10.196;2023-06-14T00:56:45;14.80;;;2.70;;
71665;SDS011;59503;53.486;10.196;2023-06-14T00:59:11;7.18;;;2.38;;
71665;SDS011;59503;53.486;10.196;2023-06-14T01:01:36;3.73;;;1.90;;
71665;SDS011;59503;53.486;10.196;2023-06-14T01:04:03;3.85;;;2.10;;
71665;SDS011;59503;53.486;10.196;2023-06-14T01:06:41;6.25;;;2.38;;
71665;SDS011;59503;53.486;10.196;2023-06-14T01:09:21;3.60;;;2.17;;
71665;SDS011;59503;53.486;10.196;2023-06-14T01:12:07;6.85;;;2.20;;
71665;SDS011;59503;53.486;10.196;2023-06-14T01:14:42;11.60;;;2.40;;
71665;SDS011;59503;53.486;10.196;2023-06-14T01:17:07;6.75;;;2.15;;
71665;SDS011;59503;53.486;10.196;2023-06-14T01:19:41;5.40;;;2.20;;
71665;SDS011;59503;53.486;10.196;2023-06-14T01:22:07;4.30;;;2.13;;
71665;SDS011;59503;53.486;10.196;2023-06-14T01:24:34;9.55;;;2.30;;
71665;SDS011;59503;53.486;10.196;2023-06-14T01:27:00;5.70;;;2.33;;
71665;SDS011;59503;53.486;10.196;2023-06-14T01:29:27;4.63;;;1.98;;
71665;SDS011;59503;53.486;10.196;2023-06-14T01:31:57;4.73;;;2.40;;
71665;SDS011;59503;53.486;10.196;2023-06-14T01:34:23;3.60;;;2.13;;
71665;SDS011;59503;53.486;10.196;2023-06-14T01:36:49;4.90;;;2.10;;
71665;SDS011;59503;53.486;10.196;2023-06-14T01:39:15;6.57;;;2.17;;
71665;SDS011;59503;53.486;10.196;2023-06-14T01:41:42;4.13;;;2.63;;
71665;SDS011;59503;53.486;10.196;2023-06-14T01:44:09;5.70;;;2.40;;
71665;SDS011;59503;53.486;10.196;2023-06-14T01:46:37;8.18;;;2.65;;
71665;SDS011;59503;53.486;10.196;2023-06-14T01:49:03;7.17;;;2.40;;
71665;SDS011;59503;53.486;10.196;2023-06-14T01:51:29;8.05;;;2.45;;
71665;SDS011;59503;53.486;10.196;2023-06-14T01:53:54;4.13;;;2.37;;
71665;SDS011;59503;53.486;10.196;2023-06-14T01:56:20;4.43;;;2.50;;
71665;SDS011;59503;53.486;10.196;2023-06-14T01:58:46;7.93;;;2.28;;
71665;SDS011;59503;53.486;10.196;2023-06-14T02:01:13;6.50;;;2.70;;
71665;SDS011;59503;53.486;10.196;2023-06-14T02:03:41;6.50;;;2.50;;
71665;SDS011;59503;53.486;10.196;2023-06-14T02:06:07;5.22;;;2.33;;
71665;SDS011;59503;53.486;10.196;2023-06-14T02:08:33;6.37;;;2.43;;
71665;SDS011;59503;53.486;10.196;2023-06-14T02:10:58;7.72;;;2.53;;
71665;SDS011;59503;53.486;10.196;2023-06-14T02:13:23;4.90;;;2.70;;
71665;SDS011;59503;53.486;10.196;2023-06-14T02:15:49;9.07;;;3.00;;
71665;SDS011;59503;53.486;10.196;2023-06-14T02:18:19;8.70;;;2.40;;
71665;SDS011;59503;53.486;10.196;2023-06-14T02:20:45;3.47;;;2.50;;
71665;SDS011;59503;53.486;10.196;2023-06-14T02:23:10;6.40;;;2.70;;
71665;SDS011;59503;53.486;10.196;2023-06-14T02:25:36;5.53;;;2.60;;
71665;SDS011;59503;53.486;10.196;2023-06-14T02:28:01;6.37;;;2.80;;
71665;SDS011;59503;53.486;10.196;2023-06-14T02:30:27;5.33;;;2.47;;
71665;SDS011;59503;53.486;10.196;2023-06-14T02:32:52;8.50;;;3.10;;
71665;SDS011;59503;53.486;10.196;2023-06-14T02:35:18;7.40;;;3.00;;
71665;SDS011;59503;53.486;10.196;2023-06-14T02:37:45;5.80;;;2.55;;
71665;SDS011;59503;53.486;10.196;2023-06-14T02:40:11;8.20;;;3.10;;
71665;SDS011;59503;53.486;10.196;2023-06-14T02:42:37;5.80;;;2.60;;
71665;SDS011;59503;53.486;10.196;2023-06-14T02:45:02;11.37;;;2.77;;
71665;SDS011;59503;53.486;10.196;2023-06-14T02:47:29;4.47;;;2.50;;
71665;SDS011;59503;53.486;10.196;2023-06-14T02:49:55;8.80;;;2.47;;
71665;SDS011;59503;53.486;10.196;2023-06-14T02:52:20;6.00;;;2.70;;
71665;SDS011;59503;53.486;10.196;2023-06-14T02:54:46;3.55;;;2.60;;
71665;SDS011;59503;53.486;10.196;2023-06-14T02:57:12;6.23;;;2.80;;
71665;SDS011;59503;53.486;10.196;2023-06-14T02:59:38;5.07;;;2.92;;
71665;SDS011;59503;53.486;10.196;2023-06-14T03:02:03;4.20;;;2.57;;
71665;SDS011;59503;53.486;10.196;2023-06-14T03:04:29;8.23;;;3.08;;
71665;SDS011;59503;53.486;10.196;2023-06-14T03:06:54;7.07;;;2.30;;
71665;SDS011;59503;53.486;10.196;2023-06-14T03:09:20;5.60;;;2.70;;
71665;SDS011;59503;53.486;10.196;2023-06-14T03:11:47;6.15;;;2.72;;
71665;SDS011;59503;53.486;10.196;2023-06-14T03:14:12;4.73;;;2.77;;
71665;SDS011;59503;53.486;10.196;2023-06-14T03:16:38;6.82;;;3.20;;
71665;SDS011;59503;53.486;10.196;2023-06-14T03:19:04;8.82;;;3.10;;
71665;SDS011;59503;53.486;10.196;2023-06-14T03:21:29;7.37;;;3.03;;
71665;SDS011;59503;53.486;10.196;2023-06-14T03:23:55;5.17;;;2.60;;
71665;SDS011;59503;53.486;10.196;2023-06-14T03:26:20;5.55;;;2.53;;
71665;SDS011;59503;53.486;10.196;2023-06-14T03:28:47;7.70;;;2.80;;
71665;SDS011;59503;53.486;10.196;2023-06-14T03:31:16;7.43;;;2.73;;
71665;SDS011;59503;53.486;10.196;2023-06-14T03:33:41;7.82;;;3.15;;
71665;SDS011;59503;53.486;10.196;2023-06-14T03:36:07;6.20;;;2.93;;
71665;SDS011;59503;53.486;10.196;2023-06-14T03:38:32;5.77;;;3.20;;
71665;SDS011;59503;53.486;10.196;2023-06-14T03:40:58;7.65;;;3.00;;
71665;SDS011;59503;53.486;10.196;2023-06-14T03:43:24;8.77;;;3.00;;
71665;SDS011;59503;53.486;10.196;2023-06-14T03:45:49;6.03;;;2.80;;
71665;SDS011;59503;53.486;10.196;2023-06-14T03:48:15;10.07;;;3.10;;
71665;SDS011;59503;53.486;10.196;2023-06-14T03:50:41;5.70;;;2.73;;
71665;SDS011;59503;53.486;10.196;2023-06-14T03:53:08;5.07;;;3.22;;
71665;SDS011;59503;53.486;10.196;2023-06-14T03:55:33;6.13;;;2.85;;
71665;SDS011;59503;53.486;10.196;2023-06-14T03:57:59;6.78;;;2.88;;
71665;SDS011;59503;53.486;10.196;2023-06-14T04:00:25;7.13;;;3.07;;
71665;SDS011;59503;53.486;10.196;2023-06-14T04:02:51;6.65;;;2.75;;
71665;SDS011;59503;53.486;10.196;2023-06-14T04:05:17;6.03;;;3.10;;
71665;SDS011;59503;53.486;10.196;2023-06-14T04:07:44;5.28;;;2.90;;
71665;SDS011;59503;53.486;10.196;2023-06-14T04:10:11;13.07;;;3.20;;
71665;SDS011;59503;53.486;10.196;2023-06-14T04:12:37;5.93;;;2.92;;
71665;SDS011;59503;53.486;10.196;2023-06-14T04:15:03;10.23;;;2.60;;
71665;SDS011;59503;53.486;10.196;2023-06-14T04:17:31;8.50;;;3.25;;
71665;SDS011;59503;53.486;10.196;2023-06-14T04:19:58;5.93;;;3.17;;
71665;SDS011;59503;53.486;10.196;2023-06-14T04:22:25;9.60;;;3.20;;
71665;SDS011;59503;53.486;10.196;2023-06-14T04:24:56;7.60;;;3.25;;
71665;SDS011;59503;53.486;10.196;2023-06-14T04:27:22;8.57;;;3.10;;
71665;SDS011;59503;53.486;10.196;2023-06-14T04:29:50;7.60;;;2.72;;
71665;SDS011;59503;53.486;10.196;2023-06-14T04:32:28;8.18;;;2.72;;
71665;SDS011;59503;53.486;10.196;2023-06-14T04:34:58;7.57;;;3.10;;
71665;SDS011;59503;53.486;10.196;2023-06-14T04:37:27;6.28;;;2.78;;
71665;SDS011;59503;53.486;10.196;2023-06-14T04:39:54;7.17;;;3.07;;
71665;SDS011;59503;53.486;10.196;2023-06-14T04:42:20;5.70;;;3.08;;
71665;SDS011;59503;53.486;10.196;2023-06-14T04:44:50;9.98;;;3.40;;
71665;SDS011;59503;53.486;10.196;2023-06-14T04:47:16;8.02;;;3.00;;
71665;SDS011;59503;53.486;10.196;2023-06-14T04:49:42;8.40;;;2.60;;
71665;SDS011;59503;53.486;10.196;2023-06-14T04:52:07;6.95;;;3.17;;
71665;SDS011;59503;53.486;10.196;2023-06-14T04:54:35;6.90;;;3.00;;
71665;SDS011;59503;53.486;10.196;2023-06-14T04:57:03;6.22;;;2.72;;
71665;SDS011;59503;53.486;10.196;2023-06-14T04:59:30;5.60;;;2.88;;
71665;SDS011;59503;53.486;10.196;2023-06-14T05:01:58;9.50;;;3.00;;
71665;SDS011;59503;53.486;10.196;2023-06-14T05:04:25;6.03;;;2.63;;
71665;SDS011;59503;53.486;10.196;2023-06-14T05:06:51;5.70;;;2.90;;
71665;SDS011;59503;53.486;10.196;2023-06-14T05:09:19;8.75;;;2.80;;
71665;SDS011;59503;53.486;10.196;2023-06-14T05:11:45;8.38;;;2.90;;
71665;SDS011;59503;53.486;10.196;2023-06-14T05:14:11;8.23;;;2.93;;
71665;SDS011;59503;53.486;10.196;2023-06-14T05:16:37;9.38;;;2.97;;
71665;SDS011;59503;53.486;10.196;2023-06-14T05:19:04;8.93;;;3.05;;
71665;SDS011;59503;53.486;10.196;2023-06-14T05:21:30;9.57;;;3.03;;
71665;SDS011;59503;53.486;10.196;2023-06-14T05:23:56;5.68;;;2.60;;
71665;SDS011;59503;53.486;10.196;2023-06-14T05:26:22;6.28;;;2.67;;
71665;SDS011;59503;53.486;10.196;2023-06-14T05:28:50;11.13;;;3.20;;
71665;SDS011;59503;53.486;10.196;2023-06-14T05:31:17;12.27;;;3.25;;
71665;SDS011;59503;53.486;10.196;2023-06-14T05:33:43;6.20;;;2.77;;
71665;SDS011;59503;53.486;10.196;2023-06-14T05:36:08;8.82;;;2.78;;
71665;SDS011;59503;53.486;10.196;2023-06-14T05:38:34;7.67;;;2.83;;
71665;SDS011;59503;53.486;10.196;2023-06-14T05:40:59;6.87;;;3.00;;
71665;SDS011;59503;53.486;10.196;2023-06-14T05:43:25;5.70;;;3.13;;
71665;SDS011;59503;53.486;10.196;2023-06-14T05:45:50;6.20;;;2.90;;
71665;SDS011;59503;53.486;10.196;2023-06-14T05:48:15;9.70;;;3.30;;
71665;SDS011;59503;53.486;10.196;2023-06-14T05:50:41;11.60;;;3.50;;
71665;SDS011;59503;53.486;10.196;2023-06-14T05:53:06;4.38;;;2.75;;
71665;SDS011;59503;53.486;10.196;2023-06-14T05:55:32;6.77;;;2.90;;
71665;SDS011;59503;53.486;10.196;2023-06-14T05:57:57;9.53;;;3.50;;
71665;SDS011;59503;53.486;10.196;2023-06-14T06:00:23;5.57;;;2.87;;
71665;SDS011;59503;53.486;10.196;2023-06-14T06:02:48;7.65;;;2.85;;
71665;SDS011;59503;53.486;10.196;2023-06-14T06:05:14;8.17;;;2.80;;
71665;SDS011;59503;53.486;10.196;2023-06-14T06:07:40;5.28;;;3.22;;
71665;SDS011;59503;53.486;10.196;2023-06-14T06:10:07;6.68;;;3.30;;
71665;SDS011;59503;53.486;10.196;2023-06-14T06:12:33;7.47;;;3.00;;
71665;SDS011;59503;53.486;10.196;2023-06-14T06:14:58;5.55;;;2.97;;
71665;SDS011;59503;53.486;10.196;2023-06-14T06:17:27;6.90;;;3.03;;
71665;SDS011;59503;53.486;10.196;2023-06-14T06:19:52;5.15;;;2.83;;
71665;SDS011;59503;53.486;10.196;2023-06-14T06:22:18;9.43;;;3.00;;
71665;SDS011;59503;53.486;10.196;2023-06-14T06:24:43;5.70;;;2.80;;
71665;SDS011;59503;53.486;10.196;2023-06-14T06:27:08;3.80;;;2.80;;
71665;SDS011;59503;53.486;10.196;2023-06-14T06:29:34;6.37;;;3.23;;
71665;SDS011;59503;53.486;10.196;2023-06-14T06:32:00;5.28;;;2.65;;
71665;SDS011;59503;53.486;10.196;2023-06-14T06:34:26;8.98;;;3.20;;
71665;SDS011;59503;53.486;10.196;2023-06-14T06:36:52;7.77;;;3.60;;
71665;SDS011;59503;53.486;10.196;2023-06-14T06:39:18;6.72;;;2.95;;
71665;SDS011;59503;53.486;10.196;2023-06-14T06:41:43;6.37;;;3.03;;
71665;SDS011;59503;53.486;10.196;2023-06-14T06:44:08;7.73;;;2.83;;
71665;SDS011;59503;53.486;10.196;2023-06-14T06:46:35;8.80;;;3.05;;
71665;SDS011;59503;53.486;10.196;2023-06-14T06:49:05;6.57;;;2.67;;
71665;SDS011;59503;53.486;10.196;2023-06-14T06:51:31;4.03;;;2.60;;
71665;SDS011;59503;53.486;10.196;2023-06-14T06:53:56;5.73;;;3.00;;
71665;SDS011;59503;53.486;10.196;2023-06-14T06:56:22;4.50;;;2.53;;
71665;SDS011;59503;53.486;10.196;2023-06-14T06:58:48;6.68;;;3.10;;
71665;SDS011;59503;53.486;10.196;2023-06-14T07:01:15;4.15;;;2.50;;
71665;SDS011;59503;53.486;10.196;2023-06-14T07:03:41;6.38;;;3.00;;
71665;SDS011;59503;53.486;10.196;2023-06-14T07:06:06;4.67;;;3.00;;
71665;SDS011;59503;53.486;10.196;2023-06-14T07:08:32;3.07;;;2.70;;
71665;SDS011;59503;53.486;10.196;2023-06-14T07:10:57;6.13;;;2.72;;
71665;SDS011;59503;53.486;10.196;2023-06-14T07:13:22;7.37;;;2.50;;
71665;SDS011;59503;53.486;10.196;2023-06-14T07:15:48;5.13;;;2.60;;
71665;SDS011;59503;53.486;10.196;2023-06-14T07:18:13;4.10;;;2.33;;
71665;SDS011;59503;53.486;10.196;2023-06-14T07:20:39;3.15;;;2.53;;
71665;SDS011;59503;53.486;10.196;2023-06-14T07:23:05;4.93;;;2.80;;
71665;SDS011;59503;53.486;10.196;2023-06-14T07:25:30;5.38;;;2.40;;
71665;SDS011;59503;53.486;10.196;2023-06-14T07:27:56;3.37;;;2.40;;
71665;SDS011;59503;53.486;10.196;2023-06-14T07:30:22;5.45;;;2.70;;
71665;SDS011;59503;53.486;10.196;2023-06-14T07:32:53;6.17;;;2.73;;
71665;SDS011;59503;53.486;10.196;2023-06-14T07:35:19;4.13;;;2.58;;
71665;SDS011;59503;53.486;10.196;2023-06-14T07:37:45;5.00;;;2.63;;
71665;SDS011;59503;53.486;10.196;2023-06-14T07:40:12;5.90;;;2.97;;
71665;SDS011;59503;53.486;10.196;2023-06-14T07:42:38;5.85;;;2.60;;
71665;SDS011;59503;53.486;10.196;2023-06-14T07:45:03;4.30;;;2.20;;
71665;SDS011;59503;53.486;10.196;2023-06-14T07:47:29;7.45;;;2.92;;
71665;SDS011;59503;53.486;10.196;2023-06-14T07:49:55;5.13;;;2.78;;
71665;SDS011;59503;53.486;10.196;2023-06-14T07:52:20;7.33;;;3.40;;
71665;SDS011;59503;53.486;10.196;2023-06-14T07:54:46;4.15;;;2.80;;
71665;SDS011;59503;53.486;10.196;2023-06-14T07:57:12;5.63;;;2.90;;
71665;SDS011;59503;53.486;10.196;2023-06-14T07:59:37;9.80;;;3.00;;
71665;SDS011;59503;53.486;10.196;2023-06-14T08:02:03;6.10;;;2.90;;
71665;SDS011;59503;53.486;10.196;2023-06-14T08:04:29;4.70;;;2.90;;
71665;SDS011;59503;53.486;10.196;2023-06-14T08:06:54;5.63;;;3.33;;
71665;SDS011;59503;53.486;10.196;2023-06-14T08:09:20;6.13;;;2.67;;
71665;SDS011;59503;53.486;10.196;2023-06-14T08:11:45;4.07;;;2.80;;
71665;SDS011;59503;53.486;10.196;2023-06-14T08:14:11;6.50;;;3.03;;
71665;SDS011;59503;53.486;10.196;2023-06-14T08:16:36;4.00;;;3.20;;
71665;SDS011;59503;53.486;10.196;2023-06-14T08:19:02;5.05;;;3.35;;
71665;SDS011;59503;53.486;10.196;2023-06-14T08:21:28;3.30;;;3.00;;
71665;SDS011;59503;53.486;10.196;2023-06-14T08:23:54;6.38;;;3.55;;
71665;SDS011;59503;53.486;10.196;2023-06-14T08:26:20;7.95;;;3.40;;
71665;SDS011;59503;53.486;10.196;2023-06-14T08:28:46;7.33;;;3.03;;
71665;SDS011;59503;53.486;10.196;2023-06-14T08:31:11;4.43;;;3.17;;
71665;SDS011;59503;53.486;10.196;2023-06-14T08:33:37;4.00;;;2.88;;
71665;SDS011;59503;53.486;10.196;2023-06-14T08:36:04;7.07;;;3.30;;
71665;SDS011;59503;53.486;10.196;2023-06-14T08:38:30;5.40;;;3.35;;
71665;SDS011;59503;53.486;10.196;2023-06-14T08:40:57;7.17;;;3.00;;
71665;SDS011;59503;53.486;10.196;2023-06-14T08:43:23;3.72;;;3.33;;
71665;SDS011;59503;53.486;10.196;2023-06-14T08:45:49;6.97;;;3.10;;
71665;SDS011;59503;53.486;10.196;2023-06-14T08:48:18;3.63;;;3.03;;
71665;SDS011;59503;53.486;10.196;2023-06-14T08:50:45;8.07;;;3.40;;
71665;SDS011;59503;53.486;10.196;2023-06-14T08:53:13;7.97;;;3.17;;
71665;SDS011;59503;53.486;10.196;2023-06-14T08:55:41;4.93;;;3.20;;
71665;SDS011;59503;53.486;10.196;2023-06-14T08:58:08;6.05;;;3.20;;
71665;SDS011;59503;53.486;10.196;2023-06-14T09:00:34;4.17;;;3.20;;
71665;SDS011;59503;53.486;10.196;2023-06-14T09:03:02;5.93;;;3.05;;
71665;SDS011;59503;53.486;10.196;2023-06-14T09:05:28;6.10;;;3.45;;
71665;SDS011;59503;53.486;10.196;2023-06-14T09:07:54;5.43;;;3.63;;
71665;SDS011;59503;53.486;10.196;2023-06-14T09:10:20;6.22;;;3.38;;
71665;SDS011;59503;53.486;10.196;2023-06-14T09:12:46;4.57;;;3.55;;
71665;SDS011;59503;53.486;10.196;2023-06-14T09:15:12;6.90;;;3.73;;
71665;SDS011;59503;53.486;10.196;2023-06-14T09:17:39;5.85;;;3.60;;
71665;SDS011;59503;53.486;10.196;2023-06-14T09:20:05;8.70;;;4.23;;
71665;SDS011;59503;53.486;10.196;2023-06-14T09:22:35;9.25;;;4.00;;
71665;SDS011;59503;53.486;10.196;2023-06-14T09:25:01;7.65;;;3.90;;
71665;SDS011;59503;53.486;10.196;2023-06-14T09:27:27;8.47;;;4.10;;
71665;SDS011;59503;53.486;10.196;2023-06-14T09:29:53;8.55;;;3.53;;
71665;SDS011;59503;53.486;10.196;2023-06-14T09:32:19;10.05;;;3.58;;
71665;SDS011;59503;53.486;10.196;2023-06-14T09:34:45;8.07;;;4.03;;
71665;SDS011;59503;53.486;10.196;2023-06-14T09:37:11;7.10;;;3.80;;
71665;SDS011;59503;53.486;10.196;2023-06-14T09:39:48;7.57;;;4.28;;
71665;SDS011;59503;53.486;10.196;2023-06-14T09:42:17;10.47;;;3.90;;
71665;SDS011;59503;53.486;10.196;2023-06-14T09:45:09;12.40;;;3.70;;
71665;SDS011;59503;53.486;10.196;2023-06-14T09:47:36;9.77;;;4.30;;
71665;SDS011;59503;53.486;10.196;2023-06-14T09:50:01;5.87;;;4.00;;
71665;SDS011;59503;53.486;10.196;2023-06-14T09:52:27;5.80;;;3.50;;
71665;SDS011;59503;53.486;10.196;2023-06-14T09:54:53;7.93;;;3.53;;
71665;SDS011;59503;53.486;10.196;2023-06-14T09:57:21;4.45;;;3.78;;
71665;SDS011;59503;53.486;10.196;2023-06-14T09:59:48;9.32;;;4.20;;
71665;SDS011;59503;53.486;10.196;2023-06-14T10:04:48;9.02;;;4.00;;
71665;SDS011;59503;53.486;10.196;2023-06-14T10:07:19;7.63;;;3.83;;
71665;SDS011;59503;53.486;10.196;2023-06-14T10:09:46;7.00;;;3.53;;
71665;SDS011;59503;53.486;10.196;2023-06-14T10:12:17;5.13;;;3.80;;
71665;SDS011;59503;53.486;10.196;2023-06-14T10:14:48;7.95;;;3.80;;
71665;SDS011;59503;53.486;10.196;2023-06-14T10:17:20;4.38;;;3.90;;
71665;SDS011;59503;53.486;10.196;2023-06-14T10:19:55;8.13;;;4.33;;
71665;SDS011;59503;53.486;10.196;2023-06-14T10:25:13;5.55;;;4.07;;
71665;SDS011;59503;53.486;10.196;2023-06-14T10:27:50;9.88;;;4.32;;
71665;SDS011;59503;53.486;10.196;2023-06-14T10:30:16;6.87;;;4.30;;
71665;SDS011;59503;53.486;10.196;2023-06-14T10:35:30;6.72;;;3.88;;
71665;SDS011;59503;53.486;10.196;2023-06-14T10:37:59;8.23;;;4.20;;
71665;SDS011;59503;53.486;10.196;2023-06-14T10:40:53;6.90;;;4.50;;
71665;SDS011;59503;53.486;10.196;2023-06-14T10:43:21;5.63;;;3.90;;
71665;SDS011;59503;53.486;10.196;2023-06-14T10:48:48;6.37;;;3.70;;
71665;SDS011;59503;53.486;10.196;2023-06-14T10:51:17;10.40;;;4.40;;
71665;SDS011;59503;53.486;10.196;2023-06-14T10:53:49;8.07;;;4.35;;
71665;SDS011;59503;53.486;10.196;2023-06-14T10:58:56;7.60;;;4.47;;
71665;SDS011;59503;53.486;10.196;2023-06-14T11:01:38;6.10;;;3.88;;
71665;SDS011;59503;53.486;10.196;2023-06-14T11:04:13;9.60;;;4.03;;
71665;SDS011;59503;53.486;10.196;2023-06-14T11:06:45;13.93;;;4.00;;
71665;SDS011;59503;53.486;10.196;2023-06-14T11:09:24;6.57;;;4.05;;
71665;SDS011;59503;53.486;10.196;2023-06-14T11:11:57;7.88;;;3.60;;
71665;SDS011;59503;53.486;10.196;2023-06-14T11:14:24;4.50;;;4.00;;
71665;SDS011;59503;53.486;10.196;2023-06-14T11:16:50;11.30;;;4.10;;
71665;SDS011;59503;53.486;10.196;2023-06-14T11:19:16;7.03;;;4.03;;
71665;SDS011;59503;53.486;10.196;2023-06-14T11:21:42;9.57;;;3.93;;
71665;SDS011;59503;53.486;10.196;2023-06-14T11:24:12;9.98;;;3.92;;
71665;SDS011;59503;53.486;10.196;2023-06-14T11:26:37;7.85;;;4.35;;
71665;SDS011;59503;53.486;10.196;2023-06-14T11:29:03;8.90;;;3.97;;
71665;SDS011;59503;53.486;10.196;2023-06-14T11:31:29;8.88;;;4.30;;
71665;SDS011;59503;53.486;10.196;2023-06-14T11:33:55;10.87;;;4.00;;
71665;SDS011;59503;53.486;10.196;2023-06-14T11:36:22;7.05;;;3.50;;
71665;SDS011;59503;53.486;10.196;2023-06-14T11:38:57;6.40;;;3.30;;
71665;SDS011;59503;53.486;10.196;2023-06-14T11:41:36;8.00;;;3.80;;
71665;SDS011;59503;53.486;10.196;2023-06-14T11:44:03;8.00;;;3.95;;
71665;SDS011;59503;53.486;10.196;2023-06-14T11:46:29;7.07;;;4.00;;
71665;SDS011;59503;53.486;10.196;2023-06-14T11:48:55;8.20;;;3.78;;
71665;SDS011;59503;53.486;10.196;2023-06-14T11:51:20;6.07;;;3.60;;
71665;SDS011;59503;53.486;10.196;2023-06-14T11:53:46;5.57;;;3.73;;
71665;SDS011;59503;53.486;10.196;2023-06-14T11:56:12;6.80;;;3.80;;
71665;SDS011;59503;53.486;10.196;2023-06-14T11:58:38;7.57;;;3.65;;
71665;SDS011;59503;53.486;10.196;2023-06-14T12:01:03;4.47;;;3.53;;
71665;SDS011;59503;53.486;10.196;2023-06-14T12:03:29;9.30;;;3.63;;
71665;SDS011;59503;53.486;10.196;2023-06-14T12:06:04;5.60;;;3.67;;
71665;SDS011;59503;53.486;10.196;2023-06-14T12:08:35;6.97;;;3.80;;
71665;SDS011;59503;53.486;10.196;2023-06-14T12:11:15;5.30;;;3.50;;
71665;SDS011;59503;53.486;10.196;2023-06-14T12:13:59;5.25;;;3.63;;
71665;SDS011;59503;53.486;10.196;2023-06-14T12:16:29;11.02;;;4.00;;
71665;SDS011;59503;53.486;10.196;2023-06-14T12:18:59;6.97;;;4.07;;
71665;SDS011;59503;53.486;10.196;2023-06-14T12:21:25;6.43;;;4.20;;
71665;SDS011;59503;53.486;10.196;2023-06-14T12:23:53;9.00;;;3.90;;
71665;SDS011;59503;53.486;10.196;2023-06-14T12:26:19;11.77;;;4.75;;
71665;SDS011;59503;53.486;10.196;2023-06-14T12:28:45;13.20;;;4.67;;
71665;SDS011;59503;53.486;10.196;2023-06-14T12:31:12;8.18;;;4.10;;
71665;SDS011;59503;53.486;10.196;2023-06-14T12:33:40;4.93;;;4.10;;
71665;SDS011;59503;53.486;10.196;2023-06-14T12:36:06;11.95;;;4.32;;
71665;SDS011;59503;53.486;10.196;2023-06-14T12:38:33;9.18;;;4.60;;
71665;SDS011;59503;53.486;10.196;2023-06-14T12:41:00;8.10;;;4.10;;
71665;SDS011;59503;53.486;10.196;2023-06-14T12:43:25;6.53;;;4.20;;
71665;SDS011;59503;53.486;10.196;2023-06-14T12:45:51;9.47;;;4.23;;
71665;SDS011;59503;53.486;10.196;2023-06-14T12:48:16;4.97;;;4.07;;
71665;SDS011;59503;53.486;10.196;2023-06-14T12:50:42;7.53;;;4.30;;
71665;SDS011;59503;53.486;10.196;2023-06-14T12:53:07;8.77;;;4.37;;
71665;SDS011;59503;53.486;10.196;2023-06-14T12:55:33;6.07;;;4.03;;
71665;SDS011;59503;53.486;10.196;2023-06-14T12:57:58;9.48;;;4.07;;
71665;SDS011;59503;53.486;10.196;2023-06-14T13:00:24;4.57;;;3.73;;
71665;SDS011;59503;53.486;10.196;2023-06-14T13:02:51;6.13;;;3.90;;
71665;SDS011;59503;53.486;10.196;2023-06-14T13:05:17;7.72;;;4.00;;
71665;SDS011;59503;53.486;10.196;2023-06-14T13:07:42;15.87;;;4.77;;
71665;SDS011;59503;53.486;10.196;2023-06-14T13:10:08;8.20;;;3.80;;
71665;SDS011;59503;53.486;10.196;2023-06-14T13:12:33;8.43;;;3.53;;
71665;SDS011;59503;53.486;10.196;2023-06-14T13:14:59;9.80;;;4.20;;
71665;SDS011;59503;53.486;10.196;2023-06-14T13:17:24;8.73;;;3.83;;
71665;SDS011;59503;53.486;10.196;2023-06-14T13:19:49;8.85;;;3.38;;
71665;SDS011;59503;53.486;10.196;2023-06-14T13:22:15;10.60;;;3.70;;
71665;SDS011;59503;53.486;10.196;2023-06-14T13:24:40;7.33;;;3.60;;
71665;SDS011;59503;53.486;10.196;2023-06-14T13:27:06;4.10;;;3.37;;
71665;SDS011;59503;53.486;10.196;2023-06-14T13:29:31;9.10;;;3.50;;
71665;SDS011;59503;53.486;10.196;2023-06-14T13:31:58;9.00;;;4.00;;
71665;SDS011;59503;53.486;10.196;2023-06-14T13:34:24;6.10;;;3.07;;
71665;SDS011;59503;53.486;10.196;2023-06-14T13:36:49;7.47;;;3.92;;
71665;SDS011;59503;53.486;10.196;2023-06-14T13:39:15;6.10;;;3.30;;
71665;SDS011;59503;53.486;10.196;2023-06-14T13:41:40;6.33;;;3.57;;
71665;SDS011;59503;53.486;10.196;2023-06-14T13:44:06;9.47;;;3.50;;
71665;SDS011;59503;53.486;10.196;2023-06-14T13:46:31;4.30;;;3.40;;
71665;SDS011;59503;53.486;10.196;2023-06-14T13:48:57;6.63;;;3.55;;
71665;SDS011;59503;53.486;10.196;2023-06-14T13:51:23;5.80;;;3.30;;
71665;SDS011;59503;53.486;10.196;2023-06-14T13:53:49;5.15;;;3.60;;
71665;SDS011;59503;53.486;10.196;2023-06-14T13:56:15;4.93;;;3.53;;
71665;SDS011;59503;53.486;10.196;2023-06-14T13:58:42;8.23;;;3.50;;
71665;SDS011;59503;53.486;10.196;2023-06-14T14:01:08;8.05;;;3.78;;
71665;SDS011;59503;53.486;10.196;2023-06-14T14:03:33;5.30;;;3.63;;
71665;SDS011;59503;53.486;10.196;2023-06-14T14:06:00;7.33;;;3.90;;
71665;SDS011;59503;53.486;10.196;2023-06-14T14:08:29;6.50;;;3.50;;
71665;SDS011;59503;53.486;10.196;2023-06-14T14:10:55;6.57;;;3.47;;
71665;SDS011;59503;53.486;10.196;2023-06-14T14:13:21;8.83;;;3.70;;
71665;SDS011;59503;53.486;10.196;2023-06-14T14:15:47;7.88;;;3.60;;
71665;SDS011;59503;53.486;10.196;2023-06-14T14:18:14;5.25;;;3.17;;
71665;SDS011;59503;53.486;10.196;2023-06-14T14:20:39;7.80;;;3.40;;
71665;SDS011;59503;53.486;10.196;2023-06-14T14:23:04;5.43;;;3.20;;
71665;SDS011;59503;53.486;10.196;2023-06-14T14:25:30;5.83;;;3.37;;
71665;SDS011;59503;53.486;10.196;2023-06-14T14:27:55;6.60;;;3.63;;
71665;SDS011;59503;53.486;10.196;2023-06-14T14:30:21;10.67;;;3.73;;
71665;SDS011;59503;53.486;10.196;2023-06-14T14:32:52;8.02;;;3.50;;
71665;SDS011;59503;53.486;10.196;2023-06-14T14:35:18;8.73;;;3.60;;
71665;SDS011;59503;53.486;10.196;2023-06-14T14:37:43;6.37;;;3.40;;
71665;SDS011;59503;53.486;10.196;2023-06-14T14:40:09;6.50;;;3.27;;
71665;SDS011;59503;53.486;10.196;2023-06-14T14:42:35;5.55;;;3.45;;
71665;SDS011;59503;53.486;10.196;2023-06-14T14:45:02;4.00;;;3.40;;